Time,TemperatureF,DewpointF,PressureIn,WindDirection,WindDirectionDegrees,WindSpeedMPH,WindSpeedGustMPH,Humidity,HourlyPrecipIn,Conditions,Clouds,dailyrainin,SolarRadiationWatts/m^2,SoftwareType,DateUTC
2013-10-02 00:01:00,45.8,25.1,29.87,SSW,201,2.0,3.0,44,0.00,,,0.00,0,WeatherCatV1.21B27,2013-10-02 07:01:00,
2013-10-02 00:06:00,45.8,25.7,29.87,SSW,201,0.0,0.0,45,0.00,,,0.00,0,WeatherCatV1.21B27,2013-10-02 07:06:00,
2013-10-02 00:11:00,45.8,25.7,29.87,SSW,201,0.0,0.0,45,0.00,,,0.00,0,WeatherCatV1.21B27,2013-10-02 07:11:00,
2013-10-02 00:16:00,45.7,24.5,29.85,SSW,201,0.0,0.0,43,0.00,,,0.00,0,WeatherCatV1.21B27,2013-10-02 07:16:00,
2013-10-02 00:21:00,45.7,23.4,29.85,SSW,201,0.0,0.0,41,0.00,,,0.00,0,WeatherCatV1.21B27,2013-10-02 07:21:00,
2013-10-02 00:26:00,45.7,25.0,29.85,SSW,201,0.0,0.0,44,0.00,,,0.00,0,WeatherCatV1.21B27,2013-10-02 07:26:00,
2013-10-02 00:31:00,45.7,20.9,29.85,SSW,201,0.0,2.0,37,0.00,,,0.00,0,WeatherCatV1.21B27,2013-10-02 07:31:00,
2013-10-02 00:36:00,45.7,17.5,29.85,SSW,201,0.0,0.0,32,0.00,,,0.00,0,WeatherCatV1.21B27,2013-10-02 07:36:00,
2013-10-02 00:41:00,45.7,19.6,29.85,SSW,201,0.0,0.0,35,0.00,,,0.00,0,WeatherCatV1.21B27,2013-10-02 07:41:00,
2013-10-02 00:46:00,45.8,21.0,29.84,SSW,201,0.0,0.0,37,0.00,,,0.00,0,WeatherCatV1.21B27,2013-10-02 07:46:00,
2013-10-02 00:51:00,45.8,22.3,29.84,SSW,200,0.0,0.0,39,0.00,,,0.00,0,WeatherCatV1.21B27,2013-10-02 07:51:00,
2013-10-02 00:56:00,45.7,22.2,29.84,SSW,200,1.0,2.0,39,0.00,,,0.00,0,WeatherCatV1.21B27,2013-10-02 07:56:00,
2013-10-02 01:01:00,45.5,23.2,29.84,SSW,199,0.0,3.0,41,0.00,,,0.00,0,WeatherCatV1.21B27,2013-10-02 08:01:00,
2013-10-02 01:06:00,45.5,23.8,29.84,SE,142,0.0,0.0,42,0.00,,,0.00,0,WeatherCatV1.21B27,2013-10-02 08:06:00,
2013-10-02 01:11:00,45.1,23.4,29.84,ESE,122,1.0,3.0,42,0.00,,,0.00,0,WeatherCatV1.21B27,2013-10-02 08:11:00,
2013-10-02 01:16:00,44.8,24.8,29.85,East,91,0.0,3.0,45,0.00,,,0.00,0,WeatherCatV1.21B27,2013-10-02 08:16:00,
2013-10-02 01:21:00,44.6,25.1,29.85,East,97,3.0,3.0,46,0.00,,,0.00,0,WeatherCatV1.21B27,2013-10-02 08:21:00,
2013-10-02 01:26:00,44.5,25.0,29.85,East,97,0.0,2.0,46,0.00,,,0.00,0,WeatherCatV1.21B27,2013-10-02 08:26:00,
2013-10-02 01:31:00,44.3,25.4,29.85,East,99,0.0,2.0,47,0.00,,,0.00,0,WeatherCatV1.21B27,2013-10-02 08:31:00,
2013-10-02 01:36:00,44.1,25.7,29.85,East,99,0.0,2.0,48,0.00,,,0.00,0,WeatherCatV1.21B27,2013-10-02 08:36:00,
2013-10-02 01:41:00,43.9,26.0,29.85,East,100,0.0,1.0,49,0.00,,,0.00,0,WeatherCatV1.21B27,2013-10-02 08:41:00,
2013-10-02 01:46:00,43.8,26.4,29.85,East,101,2.0,3.0,50,0.00,,,0.00,0,WeatherCatV1.21B27,2013-10-02 08:46:00,
2013-10-02 01:51:00,43.9,26.5,29.85,East,101,3.0,4.0,50,0.00,,,0.00,0,WeatherCatV1.21B27,2013-10-02 08:51:00,
2013-10-02 01:56:00,44.1,25.7,29.85,SE,126,3.0,5.0,48,0.00,,,0.00,0,WeatherCatV1.21B27,2013-10-02 08:56:00,
2013-10-02 02:01:00,44.5,25.0,29.85,SE,130,2.0,5.0,46,0.00,,,0.00,0,WeatherCatV1.21B27,2013-10-02 09:01:00,
2013-10-02 02:06:00,44.9,25.4,29.85,SE,128,0.0,1.0,46,0.00,,,0.00,0,WeatherCatV1.21B27,2013-10-02 09:06:00,
2013-10-02 02:11:00,45.1,25.6,29.85,SE,128,0.0,0.0,46,0.00,,,0.00,0,WeatherCatV1.21B27,2013-10-02 09:11:00,
2013-10-02 02:16:00,45.2,26.2,29.85,ESE,111,0.0,1.0,47,0.00,,,0.00,0,WeatherCatV1.21B27,2013-10-02 09:16:00,
2013-10-02 02:21:00,45.4,26.4,29.85,ESE,105,0.0,1.0,47,0.00,,,0.00,0,WeatherCatV1.21B27,2013-10-02 09:21:00,
2013-10-02 02:26:00,45.2,26.2,29.85,ESE,105,2.0,3.0,47,0.00,,,0.00,0,WeatherCatV1.21B27,2013-10-02 09:26:00,
2013-10-02 02:31:00,45.4,26.4,29.84,ESE,104,0.0,0.0,47,0.00,,,0.00,0,WeatherCatV1.21B27,2013-10-02 09:31:00,
2013-10-02 02:36:00,45.4,26.4,29.84,ESE,104,2.0,2.0,47,0.00,,,0.00,0,WeatherCatV1.21B27,2013-10-02 09:36:00,
2013-10-02 02:41:00,45.4,25.3,29.84,ESE,104,0.0,0.0,45,0.00,,,0.00,0,WeatherCatV1.21B27,2013-10-02 09:41:00,
2013-10-02 02:46:00,45.5,25.9,29.83,ESE,104,0.0,0.0,46,0.00,,,0.00,0,WeatherCatV1.21B27,2013-10-02 09:46:00,
2013-10-02 02:51:00,45.5,25.9,29.83,ESE,104,2.0,2.0,46,0.00,,,0.00,0,WeatherCatV1.21B27,2013-10-02 09:51:00,
2013-10-02 02:56:00,45.4,25.8,29.83,ESE,104,0.0,0.0,46,0.00,,,0.00,0,WeatherCatV1.21B27,2013-10-02 09:56:00,
2013-10-02 03:01:00,45.2,25.7,29.83,ESE,104,0.0,0.0,46,0.00,,,0.00,0,WeatherCatV1.21B27,2013-10-02 10:01:00,
2013-10-02 03:06:00,45.2,25.1,29.83,ESE,103,0.0,3.0,45,0.00,,,0.00,0,WeatherCatV1.21B27,2013-10-02 10:06:00,
2013-10-02 03:11:00,45.1,25.0,29.83,ESE,103,0.0,0.0,45,0.00,,,0.00,0,WeatherCatV1.21B27,2013-10-02 10:11:00,
2013-10-02 03:16:00,45.1,24.5,29.82,ESE,103,0.0,1.0,44,0.00,,,0.00,0,WeatherCatV1.21B27,2013-10-02 10:16:00,
2013-10-02 03:21:00,45.1,25.0,29.82,East,101,0.0,3.0,45,0.00,,,0.00,0,WeatherCatV1.21B27,2013-10-02 10:21:00,
2013-10-02 03:26:00,45.2,25.1,29.82,East,101,0.0,0.0,45,0.00,,,0.00,0,WeatherCatV1.21B27,2013-10-02 10:26:00,
2013-10-02 03:31:00,45.1,25.6,29.82,East,101,1.0,3.0,46,0.00,,,0.00,0,WeatherCatV1.21B27,2013-10-02 10:31:00,
2013-10-02 03:36:00,44.5,26.0,29.82,East,101,0.0,3.0,48,0.00,,,0.00,0,WeatherCatV1.21B27,2013-10-02 10:36:00,
2013-10-02 03:41:00,43.8,25.9,29.82,East,101,0.0,1.0,49,0.00,,,0.00,0,WeatherCatV1.21B27,2013-10-02 10:41:00,
2013-10-02 03:46:00,43.2,25.8,29.82,East,101,0.0,1.0,50,0.00,,,0.00,0,WeatherCatV1.21B27,2013-10-02 10:46:00,
2013-10-02 03:51:00,42.9,25.5,29.82,ESE,102,0.0,0.0,50,0.00,,,0.00,0,WeatherCatV1.21B27,2013-10-02 10:51:00,
2013-10-02 03:56:00,42.6,25.8,29.82,ESE,103,3.0,3.0,51,0.00,,,0.00,0,WeatherCatV1.21B27,2013-10-02 10:56:00,
2013-10-02 04:01:00,42.5,25.2,29.83,East,86,0.0,3.0,50,0.00,,,0.00,0,WeatherCatV1.21B27,2013-10-02 11:01:00,
2013-10-02 04:06:00,42.5,24.7,29.83,East,85,0.0,2.0,49,0.00,,,0.00,0,WeatherCatV1.21B27,2013-10-02 11:06:00,
2013-10-02 04:11:00,42.6,24.8,29.83,East,85,0.0,3.0,49,0.00,,,0.00,0,WeatherCatV1.21B27,2013-10-02 11:11:00,
2013-10-02 04:16:00,42.8,25.0,29.83,ENE,76,2.0,3.0,49,0.00,,,0.00,0,WeatherCatV1.21B27,2013-10-02 11:16:00,
2013-10-02 04:21:00,42.8,25.0,29.83,East,91,3.0,3.0,49,0.00,,,0.00,0,WeatherCatV1.21B27,2013-10-02 11:21:00,
2013-10-02 04:26:00,42.5,25.2,29.83,ESE,116,0.0,4.0,50,0.00,,,0.00,0,WeatherCatV1.21B27,2013-10-02 11:26:00,
2013-10-02 04:31:00,42.3,25.0,29.83,ESE,110,1.0,1.0,50,0.00,,,0.00,0,WeatherCatV1.21B27,2013-10-02 11:31:00,
2013-10-02 04:36:00,42.2,24.9,29.83,ESE,103,2.0,4.0,50,0.00,,,0.00,0,WeatherCatV1.21B27,2013-10-02 11:36:00,
2013-10-02 04:41:00,41.9,24.6,29.83,ESE,103,1.0,6.0,50,0.00,,,0.00,0,WeatherCatV1.21B27,2013-10-02 11:41:00,
2013-10-02 04:46:00,41.8,25.0,29.83,East,101,1.0,3.0,51,0.00,,,0.00,0,WeatherCatV1.21B27,2013-10-02 11:46:00,
2013-10-02 04:51:00,41.8,24.5,29.83,ENE,76,0.0,1.0,50,0.00,,,0.00,0,WeatherCatV1.21B27,2013-10-02 11:51:00,
2013-10-02 04:56:00,41.8,24.5,29.83,ENE,76,4.0,6.0,50,0.00,,,0.00,0,WeatherCatV1.21B27,2013-10-02 11:56:00,
2013-10-02 05:01:00,41.8,24.5,29.83,East,81,0.0,0.0,50,0.00,,,0.00,0,WeatherCatV1.21B27,2013-10-02 12:01:00,
2013-10-02 05:06:00,41.8,24.5,29.83,East,81,0.0,4.0,50,0.00,,,0.00,0,WeatherCatV1.21B27,2013-10-02 12:06:00,
2013-10-02 05:11:00,41.8,24.5,29.83,ENE,76,4.0,6.0,50,0.00,,,0.00,0,WeatherCatV1.21B27,2013-10-02 12:11:00,
2013-10-02 05:16:00,41.9,24.6,29.86,ENE,75,2.0,4.0,50,0.00,,,0.00,0,WeatherCatV1.21B27,2013-10-02 12:16:00,
2013-10-02 05:21:00,42.1,24.3,29.86,ENE,75,2.0,2.0,49,0.00,,,0.00,0,WeatherCatV1.21B27,2013-10-02 12:21:00,
2013-10-02 05:26:00,42.2,24.4,29.86,ENE,77,0.0,7.0,49,0.00,,,0.00,0,WeatherCatV1.21B27,2013-10-02 12:26:00,
2013-10-02 05:31:00,42.3,24.0,29.86,ENE,64,0.0,4.0,48,0.00,,,0.00,0,WeatherCatV1.21B27,2013-10-02 12:31:00,
2013-10-02 05:36:00,42.5,24.7,29.86,ENE,66,0.0,0.0,49,0.00,,,0.00,0,WeatherCatV1.21B27,2013-10-02 12:36:00,
2013-10-02 05:41:00,42.5,24.7,29.86,ENE,65,0.0,0.0,49,0.00,,,0.00,0,WeatherCatV1.21B27,2013-10-02 12:41:00,
2013-10-02 05:46:00,42.3,24.5,29.84,ENE,66,3.0,5.0,49,0.00,,,0.00,0,WeatherCatV1.21B27,2013-10-02 12:46:00,
2013-10-02 05:51:00,42.3,24.5,29.84,ENE,66,4.0,4.0,49,0.00,,,0.00,0,WeatherCatV1.21B27,2013-10-02 12:51:00,
2013-10-02 05:56:00,42.2,23.9,29.84,ENE,67,0.0,3.0,48,0.00,,,0.00,0,WeatherCatV1.21B27,2013-10-02 12:56:00,
2013-10-02 06:01:00,42.3,23.5,29.86,ENE,62,0.0,0.0,47,0.00,,,0.00,0,WeatherCatV1.21B27,2013-10-02 13:01:00,
2013-10-02 06:06:00,42.6,22.2,29.86,ENE,62,0.0,0.0,44,0.00,,,0.00,0,WeatherCatV1.21B27,2013-10-02 13:06:00,
2013-10-02 06:11:00,42.6,23.8,29.86,ENE,62,0.0,0.0,47,0.00,,,0.00,0,WeatherCatV1.21B27,2013-10-02 13:11:00,
2013-10-02 06:16:00,42.5,22.7,29.88,ENE,62,0.0,0.0,45,0.00,,,0.00,0,WeatherCatV1.21B27,2013-10-02 13:16:00,
2013-10-02 06:21:00,42.5,22.7,29.88,ENE,62,0.0,0.0,45,0.00,,,0.00,0,WeatherCatV1.21B27,2013-10-02 13:21:00,
2013-10-02 06:26:00,42.8,20.2,29.88,NE,47,3.0,3.0,40,0.00,,,0.00,0,WeatherCatV1.21B27,2013-10-02 13:26:00,
2013-10-02 06:31:00,43.2,19.3,29.88,NE,35,0.0,0.0,38,0.00,,,0.00,0,WeatherCatV1.21B27,2013-10-02 13:31:00,
2013-10-02 06:36:00,43.6,19.1,29.88,North,7,3.0,4.0,37,0.00,,,0.00,0,WeatherCatV1.21B27,2013-10-02 13:36:00,
2013-10-02 06:41:00,43.5,18.3,29.88,North,6,0.0,2.0,36,0.00,,,0.00,0,WeatherCatV1.21B27,2013-10-02 13:41:00,
2013-10-02 06:46:00,43.5,19.0,29.88,NNW,344,0.0,3.0,37,0.00,,,0.00,0,WeatherCatV1.21B27,2013-10-02 13:46:00,
2013-10-02 06:51:00,43.3,19.4,29.88,NNW,330,0.0,0.0,38,0.00,,,0.00,0,WeatherCatV1.21B27,2013-10-02 13:51:00,
2013-10-02 06:56:00,43.3,19.4,29.88,NW,311,2.0,5.0,38,0.00,,,0.00,0,WeatherCatV1.21B27,2013-10-02 13:56:00,
2013-10-02 07:01:00,43.3,20.0,29.88,NW,311,3.0,4.0,39,0.00,,,0.00,7,WeatherCatV1.21B27,2013-10-02 14:01:00,
2013-10-02 07:06:00,43.3,21.2,29.88,WNW,300,4.0,5.0,41,0.00,,,0.00,14,WeatherCatV1.21B27,2013-10-02 14:06:00,
2013-10-02 07:11:00,43.3,21.2,29.88,WNW,293,0.0,5.0,41,0.00,,,0.00,19,WeatherCatV1.21B27,2013-10-02 14:11:00,
2013-10-02 07:16:00,43.3,21.8,29.89,WNW,297,3.0,4.0,42,0.00,,,0.00,30,WeatherCatV1.21B27,2013-10-02 14:16:00,
2013-10-02 07:21:00,43.2,21.1,29.89,WNW,297,0.0,6.0,41,0.00,,,0.00,35,WeatherCatV1.21B27,2013-10-02 14:21:00,
2013-10-02 07:26:00,43.2,21.1,29.89,WNW,283,5.0,10.0,41,0.00,,,0.00,39,WeatherCatV1.21B27,2013-10-02 14:26:00,
2013-10-02 07:31:00,43.2,21.1,29.89,WNW,288,4.0,9.0,41,0.00,,,0.00,47,WeatherCatV1.21B27,2013-10-02 14:31:00,
2013-10-02 07:36:00,43.2,21.7,29.89,West,279,4.0,5.0,42,0.00,,,0.00,76,WeatherCatV1.21B27,2013-10-02 14:36:00,
2013-10-02 07:41:00,43.2,22.2,29.89,WNW,283,4.0,7.0,43,0.00,,,0.00,65,WeatherCatV1.21B27,2013-10-02 14:41:00,
2013-10-02 07:46:00,43.1,22.7,29.90,West,278,3.0,8.0,44,0.00,,,0.00,79,WeatherCatV1.21B27,2013-10-02 14:46:00,
2013-10-02 07:51:00,43.1,23.2,29.90,WNW,297,8.0,11.0,45,0.00,,,0.00,74,WeatherCatV1.21B27,2013-10-02 14:51:00,
2013-10-02 07:56:00,43.2,23.8,29.90,WSW,247,6.0,9.0,46,0.00,,,0.00,90,WeatherCatV1.21B27,2013-10-02 14:56:00,
2013-10-02 08:01:00,43.3,23.9,29.90,WNW,297,4.0,9.0,46,0.00,,,0.00,109,WeatherCatV1.21B27,2013-10-02 15:01:00,
2013-10-02 08:06:00,43.5,24.6,29.90,WNW,293,7.0,12.0,47,0.00,,,0.00,113,WeatherCatV1.21B27,2013-10-02 15:06:00,
2013-10-02 08:11:00,43.6,24.7,29.90,WNW,283,4.0,10.0,47,0.00,,,0.00,120,WeatherCatV1.21B27,2013-10-02 15:11:00,
2013-10-02 08:16:00,43.8,25.4,29.92,WNW,293,8.0,11.0,48,0.00,,,0.00,114,WeatherCatV1.21B27,2013-10-02 15:16:00,
2013-10-02 08:21:00,43.8,26.4,29.92,West,274,10.0,10.0,50,0.00,,,0.00,105,WeatherCatV1.21B27,2013-10-02 15:21:00,
2013-10-02 08:26:00,43.8,26.9,29.92,West,268,8.0,12.0,51,0.00,,,0.00,113,WeatherCatV1.21B27,2013-10-02 15:26:00,
2013-10-02 08:31:00,43.9,27.9,29.92,West,260,6.0,12.0,53,0.00,,,0.00,123,WeatherCatV1.21B27,2013-10-02 15:31:00,
2013-10-02 08:36:00,43.9,28.3,29.92,West,279,3.0,10.0,54,0.00,,,0.00,139,WeatherCatV1.21B27,2013-10-02 15:36:00,
2013-10-02 08:38:00,43.9,28.8,29.92,WSW,245,3.0,12.0,55,0.00,,,0.00,153,WeatherCatV1.21B27,2013-10-02 15:38:00,
2013-10-02 08:43:00,44.1,28.5,29.92,West,270,3.0,11.0,54,0.00,,,0.00,167,WeatherCatV1.21B27,2013-10-02 15:43:00,
2013-10-02 08:48:00,44.2,28.2,29.92,WNW,283,5.0,11.0,53,0.00,,,0.00,181,WeatherCatV1.21B27,2013-10-02 15:48:00,
2013-10-02 08:53:00,44.6,27.6,29.92,WNW,293,6.0,7.0,51,0.00,,,0.00,179,WeatherCatV1.21B27,2013-10-02 15:53:00,
2013-10-02 08:58:00,44.9,27.9,29.92,West,278,5.0,9.0,51,0.00,,,0.00,179,WeatherCatV1.21B27,2013-10-02 15:58:00,
2013-10-02 09:03:00,45.4,27.9,29.91,SW,220,3.0,7.0,50,0.00,,,0.00,186,WeatherCatV1.21B27,2013-10-02 16:03:00,
2013-10-02 09:08:00,45.7,27.1,29.91,West,278,5.0,9.0,48,0.00,,,0.00,195,WeatherCatV1.21B27,2013-10-02 16:08:00,
2013-10-02 09:13:00,46.0,27.9,29.91,WNW,283,5.0,10.0,49,0.00,,,0.00,199,WeatherCatV1.21B27,2013-10-02 16:13:00,
2013-10-02 09:18:00,46.0,27.4,29.91,WSW,240,11.0,12.0,48,0.00,,,0.00,190,WeatherCatV1.21B27,2013-10-02 16:18:00,
2013-10-02 09:23:00,46.1,25.4,29.91,WNW,299,7.0,14.0,44,0.00,,,0.00,174,WeatherCatV1.21B27,2013-10-02 16:23:00,
2013-10-02 09:28:00,46.1,21.9,29.91,WNW,303,11.0,12.0,38,0.00,,,0.00,192,WeatherCatV1.21B27,2013-10-02 16:28:00,
2013-10-02 09:33:00,46.2,23.8,29.91,WNW,300,6.0,12.0,41,0.00,,,0.00,218,WeatherCatV1.21B27,2013-10-02 16:33:00,
2013-10-02 09:38:00,46.4,22.2,29.91,WNW,302,12.0,17.0,38,0.00,,,0.00,179,WeatherCatV1.21B27,2013-10-02 16:38:00,
2013-10-02 09:43:00,46.4,24.6,29.91,WNW,293,8.0,12.0,42,0.00,,,0.00,148,WeatherCatV1.21B27,2013-10-02 16:43:00,
2013-10-02 09:48:00,46.4,27.3,29.90,WNW,301,5.0,12.0,47,0.00,,,0.00,130,WeatherCatV1.21B27,2013-10-02 16:48:00,
2013-10-02 09:53:00,46.2,28.1,29.90,NW,307,10.0,14.0,49,0.00,,,0.00,332,WeatherCatV1.21B27,2013-10-02 16:53:00,
2013-10-02 09:58:00,46.2,29.6,29.90,WNW,301,16.0,16.0,52,0.00,,,0.00,504,WeatherCatV1.21B27,2013-10-02 16:58:00,
2013-10-02 10:03:00,46.5,29.4,29.90,WNW,288,12.0,15.0,51,0.00,,,0.00,367,WeatherCatV1.21B27,2013-10-02 17:03:00,
2013-10-02 10:08:00,46.8,28.7,29.90,WSW,247,6.0,13.0,49,0.00,,,0.00,415,WeatherCatV1.21B27,2013-10-02 17:08:00,
2013-10-02 10:13:00,47.3,28.1,29.90,WNW,293,5.0,13.0,47,0.00,,,0.00,592,WeatherCatV1.21B27,2013-10-02 17:13:00,
2013-10-02 10:18:00,47.7,26.9,29.89,NW,318,7.0,7.0,44,0.00,,,0.00,258,WeatherCatV1.21B27,2013-10-02 17:18:00,
2013-10-02 10:23:00,48.0,21.7,29.89,WNW,293,3.0,11.0,35,0.00,,,0.00,524,WeatherCatV1.21B27,2013-10-02 17:23:00,
2013-10-02 10:28:00,48.6,20.1,29.89,WNW,301,5.0,6.0,32,0.00,,,0.00,612,WeatherCatV1.21B27,2013-10-02 17:28:00,
2013-10-02 10:33:00,49.4,17.7,29.88,WNW,300,6.0,10.0,28,0.00,,,0.00,519,WeatherCatV1.21B27,2013-10-02 17:33:00,
2013-10-02 10:38:00,49.8,17.2,29.88,West,261,4.0,16.0,27,0.00,,,0.00,290,WeatherCatV1.21B27,2013-10-02 17:38:00,
2013-10-02 10:43:00,50.1,17.4,29.88,WSW,254,4.0,11.0,27,0.00,,,0.00,619,WeatherCatV1.21B27,2013-10-02 17:43:00,
2013-10-02 10:48:00,50.5,18.6,29.89,SW,232,4.0,16.0,28,0.00,,,0.00,619,WeatherCatV1.21B27,2013-10-02 17:48:00,
2013-10-02 10:53:00,51.0,17.3,29.89,NW,316,5.0,13.0,26,0.00,,,0.00,628,WeatherCatV1.21B27,2013-10-02 17:53:00,
2013-10-02 10:58:00,51.1,17.4,29.89,WSW,241,9.0,17.0,26,0.00,,,0.00,635,WeatherCatV1.21B27,2013-10-02 17:58:00,
2013-10-02 11:03:00,51.6,17.9,29.87,WSW,249,3.0,12.0,26,0.00,,,0.00,642,WeatherCatV1.21B27,2013-10-02 18:03:00,
2013-10-02 11:08:00,51.9,18.1,29.87,West,276,7.0,12.0,26,0.00,,,0.00,652,WeatherCatV1.21B27,2013-10-02 18:08:00,
2013-10-02 11:13:00,52.2,18.4,29.87,SSW,210,3.0,20.0,26,0.00,,,0.00,661,WeatherCatV1.21B27,2013-10-02 18:13:00,
2013-10-02 11:18:00,52.8,18.9,29.88,WNW,288,10.0,13.0,26,0.00,,,0.00,668,WeatherCatV1.21B27,2013-10-02 18:18:00,
2013-10-02 11:23:00,53.1,19.1,29.88,SSW,212,6.0,10.0,26,0.00,,,0.00,677,WeatherCatV1.21B27,2013-10-02 18:23:00,
2013-10-02 11:28:00,52.8,17.0,29.88,WSW,256,5.0,18.0,24,0.00,,,0.00,682,WeatherCatV1.21B27,2013-10-02 18:28:00,
2013-10-02 11:33:00,52.9,16.1,29.88,SW,218,6.0,11.0,23,0.00,,,0.00,693,WeatherCatV1.21B27,2013-10-02 18:33:00,
2013-10-02 11:38:00,53.2,16.4,29.88,WSW,242,15.0,17.0,23,0.00,,,0.00,698,WeatherCatV1.21B27,2013-10-02 18:38:00,
2013-10-02 11:43:00,52.6,15.9,29.88,WNW,283,5.0,21.0,23,0.00,,,0.00,703,WeatherCatV1.21B27,2013-10-02 18:43:00,
2013-10-02 11:48:00,52.0,14.4,29.88,West,274,12.0,23.0,22,0.00,,,0.00,710,WeatherCatV1.21B27,2013-10-02 18:48:00,
2013-10-02 11:53:00,51.4,14.9,29.88,NW,324,20.0,22.0,23,0.00,,,0.00,715,WeatherCatV1.21B27,2013-10-02 18:53:00,
2013-10-02 11:58:00,51.3,15.8,29.88,NW,308,18.0,21.0,24,0.00,,,0.00,721,WeatherCatV1.21B27,2013-10-02 18:58:00,
2013-10-02 12:03:00,51.3,14.8,29.89,WSW,237,4.0,19.0,23,0.00,,,0.00,726,WeatherCatV1.21B27,2013-10-02 19:03:00,
2013-10-02 12:08:00,51.4,13.9,29.89,NW,311,13.0,19.0,22,0.00,,,0.00,731,WeatherCatV1.21B27,2013-10-02 19:08:00,
2013-10-02 12:13:00,51.4,16.8,29.89,WNW,288,4.0,15.0,25,0.00,,,0.00,731,WeatherCatV1.21B27,2013-10-02 19:13:00,
2013-10-02 12:19:00,51.9,17.2,29.88,SW,220,14.0,18.0,25,0.00,,,0.00,738,WeatherCatV1.21B27,2013-10-02 19:19:00,
2013-10-02 12:24:00,52.2,16.5,29.88,WSW,245,9.0,20.0,24,0.00,,,0.00,740,WeatherCatV1.21B27,2013-10-02 19:24:00,
2013-10-02 12:29:00,52.5,17.7,29.87,WSW,254,8.0,22.0,25,0.00,,,0.00,744,WeatherCatV1.21B27,2013-10-02 19:29:00,
2013-10-02 12:34:00,52.8,18.9,29.87,West,275,9.0,23.0,26,0.00,,,0.00,745,WeatherCatV1.21B27,2013-10-02 19:34:00,
2013-10-02 12:39:00,52.8,20.6,29.87,NW,318,11.0,19.0,28,0.00,,,0.00,745,WeatherCatV1.21B27,2013-10-02 19:39:00,
2013-10-02 12:44:00,52.6,16.9,29.86,WSW,257,15.0,22.0,24,0.00,,,0.00,752,WeatherCatV1.21B27,2013-10-02 19:44:00,
2013-10-02 12:49:00,52.8,19.8,29.86,NW,318,8.0,20.0,27,0.00,,,0.00,749,WeatherCatV1.21B27,2013-10-02 19:49:00,
2013-10-02 12:54:00,52.8,19.8,29.86,WNW,293,13.0,25.0,27,0.00,,,0.00,751,WeatherCatV1.21B27,2013-10-02 19:54:00,
2013-10-02 12:59:00,52.5,18.6,29.85,WNW,293,11.0,20.0,26,0.00,,,0.00,751,WeatherCatV1.21B27,2013-10-02 19:59:00,
2013-10-02 13:04:00,52.5,19.5,29.85,WNW,293,18.0,26.0,27,0.00,,,0.00,751,WeatherCatV1.21B27,2013-10-02 20:04:00,
2013-10-02 13:09:00,52.3,20.2,29.85,WNW,283,5.0,25.0,28,0.00,,,0.00,749,WeatherCatV1.21B27,2013-10-02 20:09:00,
2013-10-02 13:14:00,52.8,18.0,29.86,WNW,303,10.0,22.0,25,0.00,,,0.00,747,WeatherCatV1.21B27,2013-10-02 20:14:00,
2013-10-02 13:19:00,52.8,17.0,29.86,NW,309,16.0,25.0,24,0.00,,,0.00,747,WeatherCatV1.21B27,2013-10-02 20:19:00,
2013-10-02 13:24:00,52.2,15.5,29.86,WNW,297,21.0,29.0,23,0.00,,,0.00,751,WeatherCatV1.21B27,2013-10-02 20:24:00,
2013-10-02 13:29:00,52.3,16.6,29.86,WNW,298,17.0,22.0,24,0.00,,,0.00,745,WeatherCatV1.21B27,2013-10-02 20:29:00,
2013-10-02 13:34:00,52.6,15.9,29.86,West,276,17.0,23.0,23,0.00,,,0.00,747,WeatherCatV1.21B27,2013-10-02 20:34:00,
2013-10-02 13:39:00,52.6,14.9,29.86,NW,305,12.0,21.0,22,0.00,,,0.00,735,WeatherCatV1.21B27,2013-10-02 20:39:00,
2013-10-02 13:44:00,52.8,17.0,29.85,NW,304,18.0,30.0,24,0.00,,,0.00,742,WeatherCatV1.21B27,2013-10-02 20:44:00,
2013-10-02 13:49:00,52.9,15.1,29.85,WSW,237,11.0,25.0,22,0.00,,,0.00,735,WeatherCatV1.21B27,2013-10-02 20:49:00,
2013-10-02 13:54:00,52.9,15.1,29.85,WNW,299,14.0,22.0,22,0.00,,,0.00,737,WeatherCatV1.21B27,2013-10-02 20:54:00,
2013-10-02 13:59:00,52.8,17.0,29.85,NW,306,16.0,20.0,24,0.00,,,0.00,724,WeatherCatV1.21B27,2013-10-02 20:59:00,
2013-10-02 14:04:00,53.1,14.2,29.85,WNW,297,29.0,30.0,21,0.00,,,0.00,721,WeatherCatV1.21B27,2013-10-02 21:04:00,
2013-10-02 14:09:00,52.8,15.0,29.85,West,270,17.0,30.0,22,0.00,,,0.00,715,WeatherCatV1.21B27,2013-10-02 21:09:00,
2013-10-02 14:14:00,52.5,13.7,29.83,WNW,293,14.0,28.0,21,0.00,,,0.00,710,WeatherCatV1.21B27,2013-10-02 21:14:00,
2013-10-02 14:19:00,52.5,13.7,29.83,WNW,293,18.0,26.0,21,0.00,,,0.00,707,WeatherCatV1.21B27,2013-10-02 21:19:00,
2013-10-02 14:24:00,52.5,13.7,29.83,NW,314,20.0,28.0,21,0.00,,,0.00,700,WeatherCatV1.21B27,2013-10-02 21:24:00,
2013-10-02 14:29:00,52.6,13.8,29.82,WSW,241,22.0,27.0,21,0.00,,,0.00,693,WeatherCatV1.21B27,2013-10-02 21:29:00,
2013-10-02 14:34:00,52.6,13.8,29.82,WSW,258,13.0,28.0,21,0.00,,,0.00,686,WeatherCatV1.21B27,2013-10-02 21:34:00,
2013-10-02 14:39:00,52.3,14.6,29.82,WNW,299,24.0,29.0,22,0.00,,,0.00,677,WeatherCatV1.21B27,2013-10-02 21:39:00,
2013-10-02 14:44:00,52.3,14.6,29.83,WNW,288,11.0,26.0,22,0.00,,,0.00,666,WeatherCatV1.21B27,2013-10-02 21:44:00,
2013-10-02 14:49:00,52.2,14.5,29.83,WNW,288,16.0,25.0,22,0.00,,,0.00,659,WeatherCatV1.21B27,2013-10-02 21:49:00,
2013-10-02 14:54:00,52.6,15.9,29.83,WNW,288,25.0,25.0,23,0.00,,,0.00,652,WeatherCatV1.21B27,2013-10-02 21:54:00,
2013-10-02 14:59:00,52.6,13.8,29.82,WNW,283,16.0,22.0,21,0.00,,,0.00,640,WeatherCatV1.21B27,2013-10-02 21:59:00,
2013-10-02 15:04:00,52.5,14.8,29.82,NW,308,13.0,34.0,22,0.00,,,0.00,629,WeatherCatV1.21B27,2013-10-02 22:04:00,
2013-10-02 15:09:00,52.5,12.6,29.82,WNW,299,20.0,28.0,20,0.00,,,0.00,619,WeatherCatV1.21B27,2013-10-02 22:09:00,
2013-10-02 15:14:00,52.8,11.7,29.83,NW,324,25.0,27.0,19,0.00,,,0.00,613,WeatherCatV1.21B27,2013-10-02 22:14:00,
2013-10-02 15:19:00,52.3,15.6,29.83,NW,305,23.0,31.0,23,0.00,,,0.00,599,WeatherCatV1.21B27,2013-10-02 22:19:00,
2013-10-02 15:24:00,52.5,14.8,29.83,WNW,283,6.0,14.0,22,0.00,,,0.00,591,WeatherCatV1.21B27,2013-10-02 22:24:00,
2013-10-02 15:29:00,52.8,12.9,29.83,WNW,288,27.0,33.0,20,0.00,,,0.00,580,WeatherCatV1.21B27,2013-10-02 22:29:00,
2013-10-02 15:34:00,52.0,11.0,29.83,WNW,283,17.0,27.0,19,0.00,,,0.00,563,WeatherCatV1.21B27,2013-10-02 22:34:00,
2013-10-02 15:39:00,52.0,12.2,29.83,NW,318,20.0,31.0,20,0.00,,,0.00,554,WeatherCatV1.21B27,2013-10-02 22:39:00,
2013-10-02 15:44:00,52.0,13.3,29.84,WSW,251,13.0,22.0,21,0.00,,,0.00,540,WeatherCatV1.21B27,2013-10-02 22:44:00,
2013-10-02 15:49:00,52.3,12.4,29.84,West,262,19.0,21.0,20,0.00,,,0.00,531,WeatherCatV1.21B27,2013-10-02 22:49:00,
2013-10-02 15:54:00,52.2,12.4,29.84,NW,314,18.0,31.0,20,0.00,,,0.00,517,WeatherCatV1.21B27,2013-10-02 22:54:00,
2013-10-02 15:59:00,52.0,13.3,29.84,WNW,297,18.0,26.0,21,0.00,,,0.00,503,WeatherCatV1.21B27,2013-10-02 22:59:00,
2013-10-02 16:04:00,52.2,14.5,29.84,West,259,19.0,21.0,22,0.00,,,0.00,489,WeatherCatV1.21B27,2013-10-02 23:04:00,
2013-10-02 16:09:00,51.9,13.2,29.84,West,274,20.0,26.0,21,0.00,,,0.00,476,WeatherCatV1.21B27,2013-10-02 23:09:00,
2013-10-02 16:14:00,51.9,12.1,29.85,NW,305,15.0,31.0,20,0.00,,,0.00,462,WeatherCatV1.21B27,2013-10-02 23:14:00,
2013-10-02 16:19:00,51.7,14.1,29.85,WNW,283,20.0,28.0,22,0.00,,,0.00,445,WeatherCatV1.21B27,2013-10-02 23:19:00,
2013-10-02 16:24:00,51.9,15.3,29.85,West,278,14.0,24.0,23,0.00,,,0.00,434,WeatherCatV1.21B27,2013-10-02 23:24:00,
2013-10-02 16:29:00,51.7,15.1,29.85,NW,307,12.0,23.0,23,0.00,,,0.00,418,WeatherCatV1.21B27,2013-10-02 23:29:00,
2013-10-02 16:34:00,51.9,14.3,29.85,NW,323,18.0,29.0,22,0.00,,,0.00,401,WeatherCatV1.21B27,2013-10-02 23:34:00,
2013-10-02 16:39:00,51.4,14.9,29.85,WNW,288,15.0,24.0,23,0.00,,,0.00,385,WeatherCatV1.21B27,2013-10-02 23:39:00,
2013-10-02 16:44:00,51.4,13.9,29.87,WNW,293,24.0,27.0,22,0.00,,,0.00,371,WeatherCatV1.21B27,2013-10-02 23:44:00,
2013-10-02 16:49:00,51.3,14.8,29.87,West,264,14.0,23.0,23,0.00,,,0.00,353,WeatherCatV1.21B27,2013-10-02 23:49:00,
2013-10-02 16:52:00,51.0,13.5,29.87,West,267,24.0,30.0,22,0.00,,,0.00,343,WeatherCatV1.21B27,2013-10-02 23:52:00,
2013-10-02 16:57:00,50.7,13.3,29.87,WNW,299,29.0,30.0,22,0.00,,,0.00,329,WeatherCatV1.21B27,2013-10-02 23:57:00,
2013-10-02 17:02:00,50.4,14.0,29.86,WNW,302,24.0,32.0,23,0.00,,,0.00,309,WeatherCatV1.21B27,2013-10-03 00:02:00,
2013-10-02 17:07:00,50.1,15.7,29.86,WNW,300,31.0,31.0,25,0.00,,,0.00,290,WeatherCatV1.21B27,2013-10-03 00:07:00,
2013-10-02 17:12:00,49.9,15.5,29.86,West,278,18.0,25.0,25,0.00,,,0.00,276,WeatherCatV1.21B27,2013-10-03 00:12:00,
2013-10-02 17:17:00,49.9,13.6,29.86,NW,305,22.0,23.0,23,0.00,,,0.00,264,WeatherCatV1.21B27,2013-10-03 00:17:00,
2013-10-02 17:22:00,49.9,14.6,29.86,NW,315,28.0,33.0,24,0.00,,,0.00,246,WeatherCatV1.21B27,2013-10-03 00:22:00,
2013-10-02 17:27:00,49.8,14.5,29.86,NW,319,20.0,26.0,24,0.00,,,0.00,229,WeatherCatV1.21B27,2013-10-03 00:27:00,
2013-10-02 17:32:00,49.8,14.5,29.87,NW,314,22.0,28.0,24,0.00,,,0.00,211,WeatherCatV1.21B27,2013-10-03 00:32:00,
2013-10-02 17:37:00,49.4,13.2,29.87,West,266,13.0,29.0,23,0.00,,,0.00,193,WeatherCatV1.21B27,2013-10-03 00:37:00,
2013-10-02 17:42:00,49.4,13.2,29.87,West,265,13.0,22.0,23,0.00,,,0.00,176,WeatherCatV1.21B27,2013-10-03 00:42:00,
2013-10-02 17:47:00,49.5,12.2,29.89,West,279,21.0,25.0,22,0.00,,,0.00,153,WeatherCatV1.21B27,2013-10-03 00:47:00,
2013-10-02 17:52:00,49.4,12.2,29.89,WNW,293,15.0,22.0,22,0.00,,,0.00,144,WeatherCatV1.21B27,2013-10-03 00:52:00,
2013-10-02 17:57:00,49.2,13.0,29.89,West,273,13.0,23.0,23,0.00,,,0.00,123,WeatherCatV1.21B27,2013-10-03 00:57:00,
2013-10-02 18:02:00,48.8,13.6,29.89,WNW,288,19.0,30.0,24,0.00,,,0.00,76,WeatherCatV1.21B27,2013-10-03 01:02:00,
2013-10-02 18:07:00,48.3,15.0,29.89,WNW,299,20.0,21.0,26,0.00,,,0.00,58,WeatherCatV1.21B27,2013-10-03 01:07:00,
2013-10-02 18:12:00,48.0,13.9,29.89,NW,325,14.0,21.0,25,0.00,,,0.00,30,WeatherCatV1.21B27,2013-10-03 01:12:00,
2013-10-02 18:17:00,47.7,15.4,29.89,NW,315,19.0,25.0,27,0.00,,,0.00,23,WeatherCatV1.21B27,2013-10-03 01:17:00,
2013-10-02 18:22:00,47.3,15.9,29.89,WNW,302,13.0,19.0,28,0.00,,,0.00,23,WeatherCatV1.21B27,2013-10-03 01:22:00,
2013-10-02 18:27:00,46.8,16.2,29.89,West,272,11.0,18.0,29,0.00,,,0.00,16,WeatherCatV1.21B27,2013-10-03 01:27:00,
2013-10-02 18:32:00,46.4,15.9,29.89,West,279,15.0,23.0,29,0.00,,,0.00,7,WeatherCatV1.21B27,2013-10-03 01:32:00,
2013-10-02 18:37:00,46.1,16.4,29.89,WNW,283,7.0,21.0,30,0.00,,,0.00,0,WeatherCatV1.21B27,2013-10-03 01:37:00,
2013-10-02 18:42:00,45.7,16.8,29.89,NW,322,11.0,21.0,31,0.00,,,0.00,0,WeatherCatV1.21B27,2013-10-03 01:42:00,
2013-10-02 18:47:00,45.4,16.6,29.91,WSW,242,10.0,16.0,31,0.00,,,0.00,0,WeatherCatV1.21B27,2013-10-03 01:47:00,
2013-10-02 18:52:00,44.9,16.9,29.91,West,272,7.0,16.0,32,0.00,,,0.00,0,WeatherCatV1.21B27,2013-10-03 01:52:00,
2013-10-02 18:57:00,44.6,16.6,29.91,WSW,242,5.0,18.0,32,0.00,,,0.00,0,WeatherCatV1.21B27,2013-10-03 01:57:00,
2013-10-02 19:02:00,44.5,16.5,29.91,WNW,293,13.0,16.0,32,0.00,,,0.00,0,WeatherCatV1.21B27,2013-10-03 02:02:00,
2013-10-02 19:07:00,44.2,16.2,29.91,WSW,246,5.0,13.0,32,0.00,,,0.00,0,WeatherCatV1.21B27,2013-10-03 02:07:00,
2013-10-02 19:12:00,44.1,17.5,29.91,WSW,249,6.0,16.0,34,0.00,,,0.00,0,WeatherCatV1.21B27,2013-10-03 02:12:00,
2013-10-02 19:17:00,43.8,18.0,29.92,WNW,299,11.0,17.0,35,0.00,,,0.00,0,WeatherCatV1.21B27,2013-10-03 02:17:00,
2013-10-02 19:22:00,43.8,17.3,29.92,West,259,10.0,18.0,34,0.00,,,0.00,0,WeatherCatV1.21B27,2013-10-03 02:22:00,
2013-10-02 19:27:00,43.6,15.7,29.92,SW,232,11.0,17.0,32,0.00,,,0.00,0,WeatherCatV1.21B27,2013-10-03 02:27:00,
2013-10-02 19:32:00,43.6,15.0,29.91,WNW,297,11.0,20.0,31,0.00,,,0.00,0,WeatherCatV1.21B27,2013-10-03 02:32:00,
2013-10-02 19:37:00,43.5,14.9,29.91,West,264,12.0,12.0,31,0.00,,,0.00,0,WeatherCatV1.21B27,2013-10-03 02:37:00,
2013-10-02 19:42:00,43.5,14.9,29.91,SW,232,7.0,12.0,31,0.00,,,0.00,0,WeatherCatV1.21B27,2013-10-03 02:42:00,
2013-10-02 19:47:00,43.3,13.2,29.92,SW,226,10.0,17.0,29,0.00,,,0.00,0,WeatherCatV1.21B27,2013-10-03 02:47:00,
2013-10-02 19:52:00,43.5,10.9,29.92,WNW,288,5.0,15.0,26,0.00,,,0.00,0,WeatherCatV1.21B27,2013-10-03 02:52:00,
2013-10-02 19:57:00,43.5,9.1,29.92,WSW,248,11.0,20.0,24,0.00,,,0.00,0,WeatherCatV1.21B27,2013-10-03 02:57:00,
2013-10-02 20:02:00,43.5,8.2,29.92,WNW,293,10.0,18.0,23,0.00,,,0.00,0,WeatherCatV1.21B27,2013-10-03 03:02:00,
2013-10-02 20:07:00,43.6,8.3,29.92,WSW,247,4.0,23.0,23,0.00,,,0.00,0,WeatherCatV1.21B27,2013-10-03 03:07:00,
2013-10-02 20:12:00,43.6,7.3,29.92,WSW,252,9.0,15.0,22,0.00,,,0.00,0,WeatherCatV1.21B27,2013-10-03 03:12:00,
2013-10-02 20:17:00,43.6,10.1,29.90,WSW,249,7.0,16.0,25,0.00,,,0.00,0,WeatherCatV1.21B27,2013-10-03 03:17:00,
2013-10-02 20:22:00,43.5,8.2,29.90,WSW,258,4.0,17.0,23,0.00,,,0.00,0,WeatherCatV1.21B27,2013-10-03 03:22:00,
2013-10-02 20:27:00,43.3,8.0,29.90,WSW,246,5.0,14.0,23,0.00,,,0.00,0,WeatherCatV1.21B27,2013-10-03 03:27:00,
2013-10-02 20:32:00,43.3,6.0,29.89,SW,223,14.0,15.0,21,0.00,,,0.00,0,WeatherCatV1.21B27,2013-10-03 03:32:00,
2013-10-02 20:37:00,43.3,8.0,29.89,SW,230,10.0,15.0,23,0.00,,,0.00,0,WeatherCatV1.21B27,2013-10-03 03:37:00,
2013-10-02 20:42:00,43.2,7.0,29.89,SW,225,10.0,16.0,22,0.00,,,0.00,0,WeatherCatV1.21B27,2013-10-03 03:42:00,
2013-10-02 20:47:00,43.2,4.9,29.90,WSW,252,4.0,20.0,20,0.00,,,0.00,0,WeatherCatV1.21B27,2013-10-03 03:47:00,
2013-10-02 20:52:00,43.2,4.9,29.90,WSW,256,3.0,14.0,20,0.00,,,0.00,0,WeatherCatV1.21B27,2013-10-03 03:52:00,
2013-10-02 20:57:00,43.1,4.8,29.90,WSW,251,3.0,12.0,20,0.00,,,0.00,0,WeatherCatV1.21B27,2013-10-03 03:57:00,
2013-10-02 21:02:00,43.1,3.7,29.91,WNW,293,10.0,11.0,19,0.00,,,0.00,0,WeatherCatV1.21B27,2013-10-03 04:02:00,
2013-10-02 21:03:00,42.9,2.3,29.91,WSW,243,4.0,10.0,18,0.00,,,0.00,0,WeatherCatV1.21B27,2013-10-03 04:03:00,
2013-10-02 21:05:00,42.9,1.1,29.91,West,262,7.0,11.0,17,0.00,,,0.00,0,WeatherCatV1.21B27,2013-10-03 04:05:00,
2013-10-02 21:10:00,42.9,3.5,29.91,West,278,4.0,16.0,19,0.00,,,0.00,0,WeatherCatV1.21B27,2013-10-03 04:10:00,
2013-10-02 21:11:00,42.9,4.6,29.91,WSW,244,3.0,15.0,20,0.00,,,0.00,0,WeatherCatV1.21B27,2013-10-03 04:11:00,
2013-10-02 21:16:00,42.8,2.3,29.91,West,276,10.0,14.0,18,0.00,,,0.00,0,WeatherCatV1.21B27,2013-10-03 04:16:00,
2013-10-02 21:18:00,42.8,4.5,29.91,WNW,283,3.0,9.0,20,0.00,,,0.00,0,WeatherCatV1.21B27,2013-10-03 04:18:00,
2013-10-02 21:23:00,42.6,4.4,29.91,West,279,14.0,14.0,20,0.00,,,0.00,0,WeatherCatV1.21B27,2013-10-03 04:23:00,
2013-10-02 21:28:00,42.5,8.3,29.91,WSW,257,4.0,14.0,24,0.00,,,0.00,0,WeatherCatV1.21B27,2013-10-03 04:28:00,
2013-10-02 21:33:00,42.2,9.8,29.91,West,278,10.0,12.0,26,0.00,,,0.00,0,WeatherCatV1.21B27,2013-10-03 04:33:00,
2013-10-02 21:38:00,42.1,13.7,29.91,WSW,257,4.0,19.0,31,0.00,,,0.00,0,WeatherCatV1.21B27,2013-10-03 04:38:00,
2013-10-02 21:43:00,41.8,13.4,29.91,WSW,245,6.0,12.0,31,0.00,,,0.00,0,WeatherCatV1.21B27,2013-10-03 04:43:00,
2013-10-02 21:48:00,41.6,13.9,29.91,WNW,293,6.0,14.0,32,0.00,,,0.00,0,WeatherCatV1.21B27,2013-10-03 04:48:00,
2013-10-02 21:53:00,41.3,14.4,29.91,WSW,252,10.0,21.0,33,0.00,,,0.00,0,WeatherCatV1.21B27,2013-10-03 04:53:00,
2013-10-02 21:58:00,41.2,13.6,29.91,West,261,10.0,18.0,32,0.00,,,0.00,0,WeatherCatV1.21B27,2013-10-03 04:58:00,
2013-10-02 22:03:00,41.2,12.9,29.92,WSW,243,6.0,14.0,31,0.00,,,0.00,0,WeatherCatV1.21B27,2013-10-03 05:03:00,
2013-10-02 22:08:00,41.1,12.8,29.92,West,261,9.0,15.0,31,0.00,,,0.00,0,WeatherCatV1.21B27,2013-10-03 05:08:00,
2013-10-02 22:13:00,41.1,12.1,29.92,WNW,297,12.0,14.0,30,0.00,,,0.00,0,WeatherCatV1.21B27,2013-10-03 05:13:00,
2013-10-02 22:18:00,41.1,12.8,29.88,WNW,303,7.0,18.0,31,0.00,,,0.00,0,WeatherCatV1.21B27,2013-10-03 05:18:00,
2013-10-02 22:23:00,40.9,12.6,29.88,WSW,249,11.0,17.0,31,0.00,,,0.00,0,WeatherCatV1.21B27,2013-10-03 05:23:00,
2013-10-02 22:28:00,40.9,13.3,29.88,WNW,303,7.0,17.0,32,0.00,,,0.00,0,WeatherCatV1.21B27,2013-10-03 05:28:00,
2013-10-02 22:33:00,40.9,12.6,29.89,West,259,11.0,21.0,31,0.00,,,0.00,0,WeatherCatV1.21B27,2013-10-03 05:33:00,
2013-10-02 22:38:00,40.8,13.2,29.89,WNW,288,6.0,16.0,32,0.00,,,0.00,0,WeatherCatV1.21B27,2013-10-03 05:38:00,
2013-10-02 22:43:00,40.6,12.4,29.89,West,268,13.0,17.0,31,0.00,,,0.00,0,WeatherCatV1.21B27,2013-10-03 05:43:00,
2013-10-02 22:48:00,40.5,10.8,29.90,WNW,288,9.0,14.0,29,0.00,,,0.00,0,WeatherCatV1.21B27,2013-10-03 05:48:00,
2013-10-02 22:53:00,40.3,10.6,29.90,NW,305,7.0,11.0,29,0.00,,,0.00,0,WeatherCatV1.21B27,2013-10-03 05:53:00,
2013-10-02 22:58:00,40.2,10.5,29.90,West,275,4.0,9.0,29,0.00,,,0.00,0,WeatherCatV1.21B27,2013-10-03 05:58:00,
2013-10-02 23:03:00,40.1,10.4,29.90,WNW,288,4.0,11.0,29,0.00,,,0.00,0,WeatherCatV1.21B27,2013-10-03 06:03:00,
2013-10-02 23:08:00,39.9,10.2,29.90,WSW,257,5.0,13.0,29,0.00,,,0.00,0,WeatherCatV1.21B27,2013-10-03 06:08:00,
2013-10-02 23:13:00,39.8,10.2,29.90,WNW,283,4.0,10.0,29,0.00,,,0.00,0,WeatherCatV1.21B27,2013-10-03 06:13:00,
2013-10-02 23:18:00,39.6,10.0,29.91,WNW,283,4.0,12.0,29,0.00,,,0.00,0,WeatherCatV1.21B27,2013-10-03 06:18:00,
2013-10-02 23:23:00,39.5,9.9,29.91,WNW,288,4.0,10.0,29,0.00,,,0.00,0,WeatherCatV1.21B27,2013-10-03 06:23:00,
2013-10-02 23:28:00,39.5,9.1,29.91,WSW,254,7.0,9.0,28,0.00,,,0.00,0,WeatherCatV1.21B27,2013-10-03 06:28:00,
2013-10-02 23:33:00,39.3,8.9,29.90,WSW,255,3.0,12.0,28,0.00,,,0.00,0,WeatherCatV1.21B27,2013-10-03 06:33:00,
2013-10-02 23:38:00,39.2,8.9,29.90,WNW,283,5.0,9.0,28,0.00,,,0.00,0,WeatherCatV1.21B27,2013-10-03 06:38:00,
2013-10-02 23:43:00,39.2,8.9,29.90,West,268,5.0,10.0,28,0.00,,,0.00,0,WeatherCatV1.21B27,2013-10-03 06:43:00,
2013-10-02 23:48:00,39.1,9.6,29.91,West,267,4.0,6.0,29,0.00,,,0.00,0,WeatherCatV1.21B27,2013-10-03 06:48:00,
2013-10-02 23:53:00,38.9,9.4,29.91,WNW,283,5.0,6.0,29,0.00,,,0.00,0,WeatherCatV1.21B27,2013-10-03 06:53:00,
2013-10-02 23:58:00,38.6,9.1,29.91,WSW,243,3.0,6.0,29,0.00,,,0.00,0,WeatherCatV1.21B27,2013-10-03 06:58:00,